sensor_id;sensor_type;location;lat;lon;timestamp;P1;durP1;ratioP1;P2;durP2;ratioP2
71955;SDS011;59829;50.562;6.258;2024-02-15T00:08:16;2.22;;;0.77;;
71955;SDS011;59829;50.562;6.258;2024-02-15T00:18:16;2.10;;;0.70;;
71955;SDS011;59829;50.562;6.258;2024-02-15T00:28:16;1.58;;;0.90;;
71955;SDS011;59829;50.562;6.258;2024-02-15T00:38:17;2.83;;;1.07;;
71955;SDS011;59829;50.562;6.258;2024-02-15T00:48:17;1.75;;;0.73;;
71955;SDS011;59829;50.562;6.258;2024-02-15T00:58:18;2.05;;;0.90;;
71955;SDS011;59829;50.562;6.258;2024-02-15T01:08:18;2.25;;;0.98;;
71955;SDS011;59829;50.562;6.258;2024-02-15T01:18:19;2.83;;;1.20;;
71955;SDS011;59829;50.562;6.258;2024-02-15T01:28:19;2.70;;;1.00;;
71955;SDS011;59829;50.562;6.258;2024-02-15T01:38:20;3.13;;;1.05;;
71955;SDS011;59829;50.562;6.258;2024-02-15T01:48:20;2.33;;;1.23;;
71955;SDS011;59829;50.562;6.258;2024-02-15T01:58:20;3.40;;;1.15;;
71955;SDS011;59829;50.562;6.258;2024-02-15T02:08:21;2.58;;;1.10;;
71955;SDS011;59829;50.562;6.258;2024-02-15T02:18:22;2.10;;;1.00;;
71955;SDS011;59829;50.562;6.258;2024-02-15T02:28:24;2.03;;;0.93;;
71955;SDS011;59829;50.562;6.258;2024-02-15T02:38:24;1.77;;;0.93;;
71955;SDS011;59829;50.562;6.258;2024-02-15T02:48:26;2.20;;;0.98;;
71955;SDS011;59829;50.562;6.258;2024-02-15T02:58:27;2.65;;;1.10;;
71955;SDS011;59829;50.562;6.258;2024-02-15T03:08:28;1.55;;;0.77;;
71955;SDS011;59829;50.562;6.258;2024-02-15T03:18:29;2.08;;;1.05;;
71955;SDS011;59829;50.562;6.258;2024-02-15T03:28:29;3.30;;;1.33;;
71955;SDS011;59829;50.562;6.258;2024-02-15T03:38:29;1.92;;;1.00;;
71955;SDS011;59829;50.562;6.258;2024-02-15T03:48:31;2.83;;;1.20;;
71955;SDS011;59829;50.562;6.258;2024-02-15T03:58:32;2.53;;;1.02;;
71955;SDS011;59829;50.562;6.258;2024-02-15T04:08:32;2.30;;;1.25;;
71955;SDS011;59829;50.562;6.258;2024-02-15T04:18:33;2.97;;;1.00;;
71955;SDS011;59829;50.562;6.258;2024-02-15T04:28:33;1.73;;;1.05;;
71955;SDS011;59829;50.562;6.258;2024-02-15T04:38:34;1.60;;;0.98;;
71955;SDS011;59829;50.562;6.258;2024-02-15T04:48:34;1.63;;;1.08;;
71955;SDS011;59829;50.562;6.258;2024-02-15T04:58:35;2.42;;;1.15;;
71955;SDS011;59829;50.562;6.258;2024-02-15T05:08:36;2.08;;;1.02;;
71955;SDS011;59829;50.562;6.258;2024-02-15T05:18:42;1.58;;;0.80;;
71955;SDS011;59829;50.562;6.258;2024-02-15T05:28:42;1.90;;;1.00;;
71955;SDS011;59829;50.562;6.258;2024-02-15T05:38:43;1.65;;;0.65;;
71955;SDS011;59829;50.562;6.258;2024-02-15T05:48:45;0.90;;;0.60;;
71955;SDS011;59829;50.562;6.258;2024-02-15T05:58:45;2.08;;;0.90;;
71955;SDS011;59829;50.562;6.258;2024-02-15T06:08:46;2.63;;;0.88;;
71955;SDS011;59829;50.562;6.258;2024-02-15T06:18:47;1.77;;;0.77;;
71955;SDS011;59829;50.562;6.258;2024-02-15T06:28:48;1.25;;;0.80;;
71955;SDS011;59829;50.562;6.258;2024-02-15T06:39:06;1.98;;;0.80;;
71955;SDS011;59829;50.562;6.258;2024-02-15T06:49:25;2.53;;;0.88;;
71955;SDS011;59829;50.562;6.258;2024-02-15T06:59:26;1.73;;;1.00;;
71955;SDS011;59829;50.562;6.258;2024-02-15T07:09:26;1.30;;;0.70;;
71955;SDS011;59829;50.562;6.258;2024-02-15T07:19:27;1.08;;;0.63;;
71955;SDS011;59829;50.562;6.258;2024-02-15T07:29:27;2.15;;;0.90;;
71955;SDS011;59829;50.562;6.258;2024-02-15T07:39:28;3.42;;;0.73;;
71955;SDS011;59829;50.562;6.258;2024-02-15T07:49:29;3.15;;;0.95;;
71955;SDS011;59829;50.562;6.258;2024-02-15T07:59:29;1.33;;;0.68;;
71955;SDS011;59829;50.562;6.258;2024-02-15T08:09:30;2.67;;;0.82;;
71955;SDS011;59829;50.562;6.258;2024-02-15T08:19:30;12.30;;;1.35;;
71955;SDS011;59829;50.562;6.258;2024-02-15T08:29:30;9.27;;;1.98;;
71955;SDS011;59829;50.562;6.258;2024-02-15T08:39:31;12.45;;;1.52;;
71955;SDS011;59829;50.562;6.258;2024-02-15T08:49:31;8.68;;;2.00;;
71955;SDS011;59829;50.562;6.258;2024-02-15T08:59:31;30.42;;;10.00;;
71955;SDS011;59829;50.562;6.258;2024-02-15T09:09:33;44.53;;;15.88;;
71955;SDS011;59829;50.562;6.258;2024-02-15T09:19:34;41.15;;;15.57;;
71955;SDS011;59829;50.562;6.258;2024-02-15T09:29:34;43.53;;;11.68;;
71955;SDS011;59829;50.562;6.258;2024-02-15T09:39:36;24.98;;;5.75;;
71955;SDS011;59829;50.562;6.258;2024-02-15T09:49:38;32.00;;;7.00;;
71955;SDS011;59829;50.562;6.258;2024-02-15T09:59:39;21.63;;;4.47;;
71955;SDS011;59829;50.562;6.258;2024-02-15T10:09:40;20.33;;;4.68;;
71955;SDS011;59829;50.562;6.258;2024-02-15T10:19:42;20.10;;;4.17;;
71955;SDS011;59829;50.562;6.258;2024-02-15T10:29:44;69.13;;;24.55;;
71955;SDS011;59829;50.562;6.258;2024-02-15T10:39:45;36.17;;;12.93;;
71955;SDS011;59829;50.562;6.258;2024-02-15T10:49:47;24.65;;;9.25;;
71955;SDS011;59829;50.562;6.258;2024-02-15T10:59:54;34.90;;;9.68;;
71955;SDS011;59829;50.562;6.258;2024-02-15T11:09:59;147.68;;;9.75;;
71955;SDS011;59829;50.562;6.258;2024-02-15T11:20:00;180.13;;;11.93;;
71955;SDS011;59829;50.562;6.258;2024-02-15T11:30:01;8.98;;;2.00;;
71955;SDS011;59829;50.562;6.258;2024-02-15T11:40:26;42.08;;;18.63;;
71955;SDS011;59829;50.562;6.258;2024-02-15T11:50:42;28.73;;;12.32;;
71955;SDS011;59829;50.562;6.258;2024-02-15T12:00:42;281.63;;;16.10;;
71955;SDS011;59829;50.562;6.258;2024-02-15T12:11:01;23.92;;;7.43;;
71955;SDS011;59829;50.562;6.258;2024-02-15T12:21:21;16.58;;;5.25;;
71955;SDS011;59829;50.562;6.258;2024-02-15T12:31:25;13.10;;;3.95;;
71955;SDS011;59829;50.562;6.258;2024-02-15T12:41:28;12.55;;;3.45;;
71955;SDS011;59829;50.562;6.258;2024-02-15T12:51:30;8.40;;;2.75;;
71955;SDS011;59829;50.562;6.258;2024-02-15T13:01:31;8.05;;;2.35;;
71955;SDS011;59829;50.562;6.258;2024-02-15T13:11:31;2.35;;;1.13;;
71955;SDS011;59829;50.562;6.258;2024-02-15T13:21:33;4.23;;;1.20;;
71955;SDS011;59829;50.562;6.258;2024-02-15T13:31:34;7.93;;;1.17;;
71955;SDS011;59829;50.562;6.258;2024-02-15T13:41:34;6.15;;;1.00;;
71955;SDS011;59829;50.562;6.258;2024-02-15T13:51:35;5.65;;;1.42;;
71955;SDS011;59829;50.562;6.258;2024-02-15T14:01:35;2.75;;;0.90;;
71955;SDS011;59829;50.562;6.258;2024-02-15T14:11:43;2.08;;;0.57;;
71955;SDS011;59829;50.562;6.258;2024-02-15T14:21:43;2.90;;;0.70;;
71955;SDS011;59829;50.562;6.258;2024-02-15T14:31:44;2.28;;;0.52;;
71955;SDS011;59829;50.562;6.258;2024-02-15T14:42:04;1.83;;;0.50;;
71955;SDS011;59829;50.562;6.258;2024-02-15T14:52:04;1.23;;;0.55;;
71955;SDS011;59829;50.562;6.258;2024-02-15T15:02:05;2.17;;;0.80;;
71955;SDS011;59829;50.562;6.258;2024-02-15T15:12:08;2.03;;;0.47;;
71955;SDS011;59829;50.562;6.258;2024-02-15T15:22:27;0.82;;;0.40;;
71955;SDS011;59829;50.562;6.258;2024-02-15T15:32:28;1.05;;;0.35;;
71955;SDS011;59829;50.562;6.258;2024-02-15T15:42:28;0.85;;;0.30;;
71955;SDS011;59829;50.562;6.258;2024-02-15T15:52:28;0.77;;;0.40;;
71955;SDS011;59829;50.562;6.258;2024-02-15T16:02:29;1.60;;;0.38;;
71955;SDS011;59829;50.562;6.258;2024-02-15T16:12:30;0.60;;;0.30;;
71955;SDS011;59829;50.562;6.258;2024-02-15T16:22:35;0.25;;;0.17;;
71955;SDS011;59829;50.562;6.258;2024-02-15T16:32:37;0.93;;;0.38;;
71955;SDS011;59829;50.562;6.258;2024-02-15T16:42:40;8.00;;;0.43;;
71955;SDS011;59829;50.562;6.258;2024-02-15T16:52:47;4.65;;;0.80;;
71955;SDS011;59829;50.562;6.258;2024-02-15T17:02:49;4.22;;;0.98;;
71955;SDS011;59829;50.562;6.258;2024-02-15T17:12:50;3.97;;;0.88;;
71955;SDS011;59829;50.562;6.258;2024-02-15T17:22:52;6.18;;;1.15;;
71955;SDS011;59829;50.562;6.258;2024-02-15T17:32:53;7.32;;;1.50;;
71955;SDS011;59829;50.562;6.258;2024-02-15T17:42:53;13.52;;;2.00;;
71955;SDS011;59829;50.562;6.258;2024-02-15T17:52:53;18.38;;;1.70;;
71955;SDS011;59829;50.562;6.258;2024-02-15T18:02:54;17.30;;;2.42;;
71955;SDS011;59829;50.562;6.258;2024-02-15T18:12:54;14.20;;;1.80;;
71955;SDS011;59829;50.562;6.258;2024-02-15T18:22:54;13.95;;;1.75;;
71955;SDS011;59829;50.562;6.258;2024-02-15T18:32:55;8.13;;;1.40;;
71955;SDS011;59829;50.562;6.258;2024-02-15T18:42:57;3.75;;;1.02;;
71955;SDS011;59829;50.562;6.258;2024-02-15T18:52:57;17.40;;;3.13;;
71955;SDS011;59829;50.562;6.258;2024-02-15T19:02:58;7.55;;;1.10;;
71955;SDS011;59829;50.562;6.258;2024-02-15T19:13:00;5.65;;;1.00;;
71955;SDS011;59829;50.562;6.258;2024-02-15T19:23:00;4.50;;;0.70;;
71955;SDS011;59829;50.562;6.258;2024-02-15T19:33:01;7.22;;;0.80;;
71955;SDS011;59829;50.562;6.258;2024-02-15T19:43:02;5.60;;;1.20;;
71955;SDS011;59829;50.562;6.258;2024-02-15T19:53:02;7.20;;;2.08;;
71955;SDS011;59829;50.562;6.258;2024-02-15T20:03:04;13.95;;;2.00;;
71955;SDS011;59829;50.562;6.258;2024-02-15T20:13:04;8.43;;;1.30;;
71955;SDS011;59829;50.562;6.258;2024-02-15T20:23:04;5.72;;;1.17;;
71955;SDS011;59829;50.562;6.258;2024-02-15T20:33:05;7.18;;;1.45;;
71955;SDS011;59829;50.562;6.258;2024-02-15T20:43:11;3.15;;;1.33;;
71955;SDS011;59829;50.562;6.258;2024-02-15T20:53:11;6.70;;;2.25;;
71955;SDS011;59829;50.562;6.258;2024-02-15T21:03:12;5.15;;;2.20;;
71955;SDS011;59829;50.562;6.258;2024-02-15T21:13:12;4.15;;;1.77;;
71955;SDS011;59829;50.562;6.258;2024-02-15T21:23:13;2.97;;;1.65;;
71955;SDS011;59829;50.562;6.258;2024-02-15T21:33:14;2.70;;;1.33;;
71955;SDS011;59829;50.562;6.258;2024-02-15T21:43:14;3.63;;;1.30;;
71955;SDS011;59829;50.562;6.258;2024-02-15T21:53:14;3.00;;;1.38;;
71955;SDS011;59829;50.562;6.258;2024-02-15T22:03:15;3.17;;;1.15;;
71955;SDS011;59829;50.562;6.258;2024-02-15T22:13:16;3.22;;;1.30;;
71955;SDS011;59829;50.562;6.258;2024-02-15T22:23:18;3.22;;;1.15;;
71955;SDS011;59829;50.562;6.258;2024-02-15T22:33:19;1.73;;;1.10;;
71955;SDS011;59829;50.562;6.258;2024-02-15T22:43:23;1.58;;;1.00;;
71955;SDS011;59829;50.562;6.258;2024-02-15T22:53:23;2.85;;;1.08;;
71955;SDS011;59829;50.562;6.258;2024-02-15T23:03:23;1.83;;;0.90;;
71955;SDS011;59829;50.562;6.258;2024-02-15T23:13:24;1.75;;;0.98;;
71955;SDS011;59829;50.562;6.258;2024-02-15T23:23:24;2.23;;;1.10;;
71955;SDS011;59829;50.562;6.258;2024-02-15T23:33:25;1.83;;;0.77;;
71955;SDS011;59829;50.562;6.258;2024-02-15T23:43:25;1.65;;;0.80;;
71955;SDS011;59829;50.562;6.258;2024-02-15T23:53:26;1.77;;;0.77;;
